sensor_id;sensor_type;location;lat;lon;timestamp;P1;durP1;ratioP1;P2;durP2;ratioP2
5559;SDS011;2803;47.916;8.074;2024-02-15T00:00:28;8.77;;;1.20;;
5559;SDS011;2803;47.916;8.074;2024-02-15T00:02:55;4.27;;;1.20;;
5559;SDS011;2803;47.916;8.074;2024-02-15T00:05:24;2.70;;;1.40;;
5559;SDS011;2803;47.916;8.074;2024-02-15T00:07:51;2.97;;;1.07;;
5559;SDS011;2803;47.916;8.074;2024-02-15T00:10:17;17.50;;;1.27;;
5559;SDS011;2803;47.916;8.074;2024-02-15T00:12:46;5.10;;;1.20;;
5559;SDS011;2803;47.916;8.074;2024-02-15T00:15:15;5.00;;;1.40;;
5559;SDS011;2803;47.916;8.074;2024-02-15T00:17:41;5.10;;;1.30;;
5559;SDS011;2803;47.916;8.074;2024-02-15T00:20:08;3.70;;;1.30;;
5559;SDS011;2803;47.916;8.074;2024-02-15T00:22:36;2.03;;;0.97;;
5559;SDS011;2803;47.916;8.074;2024-02-15T00:25:03;3.43;;;1.10;;
5559;SDS011;2803;47.916;8.074;2024-02-15T00:27:31;3.93;;;1.27;;
5559;SDS011;2803;47.916;8.074;2024-02-15T00:29:59;7.73;;;0.93;;
5559;SDS011;2803;47.916;8.074;2024-02-15T00:32:26;7.00;;;1.60;;
5559;SDS011;2803;47.916;8.074;2024-02-15T00:34:53;2.90;;;1.10;;
5559;SDS011;2803;47.916;8.074;2024-02-15T00:37:20;4.97;;;1.20;;
5559;SDS011;2803;47.916;8.074;2024-02-15T00:39:48;1.00;;;0.70;;
5559;SDS011;2803;47.916;8.074;2024-02-15T00:42:15;2.33;;;1.10;;
5559;SDS011;2803;47.916;8.074;2024-02-15T00:44:41;3.20;;;0.80;;
5559;SDS011;2803;47.916;8.074;2024-02-15T00:47:09;3.10;;;0.90;;
5559;SDS011;2803;47.916;8.074;2024-02-15T00:49:36;4.60;;;1.03;;
5559;SDS011;2803;47.916;8.074;2024-02-15T00:52:03;5.30;;;1.63;;
5559;SDS011;2803;47.916;8.074;2024-02-15T00:54:30;3.20;;;1.40;;
5559;SDS011;2803;47.916;8.074;2024-02-15T00:56:58;5.57;;;1.40;;
5559;SDS011;2803;47.916;8.074;2024-02-15T00:59:24;6.60;;;1.40;;
5559;SDS011;2803;47.916;8.074;2024-02-15T01:01:51;4.50;;;1.40;;
5559;SDS011;2803;47.916;8.074;2024-02-15T01:04:18;1.20;;;1.10;;
5559;SDS011;2803;47.916;8.074;2024-02-15T01:06:45;2.70;;;1.00;;
5559;SDS011;2803;47.916;8.074;2024-02-15T01:09:12;3.93;;;1.17;;
5559;SDS011;2803;47.916;8.074;2024-02-15T01:11:40;3.13;;;1.20;;
5559;SDS011;2803;47.916;8.074;2024-02-15T01:14:07;10.03;;;1.80;;
5559;SDS011;2803;47.916;8.074;2024-02-15T01:16:34;1.93;;;1.17;;
5559;SDS011;2803;47.916;8.074;2024-02-15T01:19:01;1.50;;;1.03;;
5559;SDS011;2803;47.916;8.074;2024-02-15T01:21:29;3.57;;;1.43;;
5559;SDS011;2803;47.916;8.074;2024-02-15T01:23:58;2.70;;;1.30;;
5559;SDS011;2803;47.916;8.074;2024-02-15T01:26:25;4.60;;;1.20;;
5559;SDS011;2803;47.916;8.074;2024-02-15T01:28:52;4.13;;;1.20;;
5559;SDS011;2803;47.916;8.074;2024-02-15T01:31:20;5.23;;;1.30;;
5559;SDS011;2803;47.916;8.074;2024-02-15T01:33:46;4.77;;;1.10;;
5559;SDS011;2803;47.916;8.074;2024-02-15T01:36:14;4.03;;;1.20;;
5559;SDS011;2803;47.916;8.074;2024-02-15T01:38:41;1.80;;;0.90;;
5559;SDS011;2803;47.916;8.074;2024-02-15T01:41:08;4.23;;;1.33;;
5559;SDS011;2803;47.916;8.074;2024-02-15T01:43:35;3.13;;;1.07;;
5559;SDS011;2803;47.916;8.074;2024-02-15T01:46:02;2.13;;;1.20;;
5559;SDS011;2803;47.916;8.074;2024-02-15T01:48:35;6.67;;;2.13;;
5559;SDS011;2803;47.916;8.074;2024-02-15T01:51:03;2.30;;;1.23;;
5559;SDS011;2803;47.916;8.074;2024-02-15T01:53:30;2.13;;;0.93;;
5559;SDS011;2803;47.916;8.074;2024-02-15T01:55:57;4.10;;;1.20;;
5559;SDS011;2803;47.916;8.074;2024-02-15T01:58:25;2.60;;;1.10;;
5559;SDS011;2803;47.916;8.074;2024-02-15T02:00:53;3.77;;;1.57;;
5559;SDS011;2803;47.916;8.074;2024-02-15T02:03:21;4.97;;;1.30;;
5559;SDS011;2803;47.916;8.074;2024-02-15T02:05:50;2.17;;;1.50;;
5559;SDS011;2803;47.916;8.074;2024-02-15T02:08:16;2.93;;;0.97;;
5559;SDS011;2803;47.916;8.074;2024-02-15T02:10:43;1.67;;;0.90;;
5559;SDS011;2803;47.916;8.074;2024-02-15T02:13:10;1.73;;;0.90;;
5559;SDS011;2803;47.916;8.074;2024-02-15T02:15:37;2.90;;;1.03;;
5559;SDS011;2803;47.916;8.074;2024-02-15T02:18:04;1.83;;;1.20;;
5559;SDS011;2803;47.916;8.074;2024-02-15T02:20:33;1.80;;;1.10;;
5559;SDS011;2803;47.916;8.074;2024-02-15T02:23:02;2.03;;;1.10;;
5559;SDS011;2803;47.916;8.074;2024-02-15T02:25:37;3.57;;;1.20;;
5559;SDS011;2803;47.916;8.074;2024-02-15T02:28:03;2.43;;;1.07;;
5559;SDS011;2803;47.916;8.074;2024-02-15T02:30:31;1.80;;;1.30;;
5559;SDS011;2803;47.916;8.074;2024-02-15T02:32:58;1.93;;;0.90;;
5559;SDS011;2803;47.916;8.074;2024-02-15T02:35:25;6.57;;;1.50;;
5559;SDS011;2803;47.916;8.074;2024-02-15T02:37:53;1.80;;;1.20;;
5559;SDS011;2803;47.916;8.074;2024-02-15T02:40:19;1.90;;;1.17;;
5559;SDS011;2803;47.916;8.074;2024-02-15T02:42:48;3.43;;;1.50;;
5559;SDS011;2803;47.916;8.074;2024-02-15T02:45:16;3.13;;;1.13;;
5559;SDS011;2803;47.916;8.074;2024-02-15T02:47:44;2.60;;;1.03;;
5559;SDS011;2803;47.916;8.074;2024-02-15T02:50:11;9.43;;;1.40;;
5559;SDS011;2803;47.916;8.074;2024-02-15T02:52:38;1.43;;;1.07;;
5559;SDS011;2803;47.916;8.074;2024-02-15T02:55:05;3.93;;;1.40;;
5559;SDS011;2803;47.916;8.074;2024-02-15T02:57:33;2.53;;;1.40;;
5559;SDS011;2803;47.916;8.074;2024-02-15T03:00:01;2.50;;;1.37;;
5559;SDS011;2803;47.916;8.074;2024-02-15T03:02:29;4.57;;;1.33;;
5559;SDS011;2803;47.916;8.074;2024-02-15T03:04:56;3.90;;;0.93;;
5559;SDS011;2803;47.916;8.074;2024-02-15T03:07:24;2.63;;;1.30;;
5559;SDS011;2803;47.916;8.074;2024-02-15T03:09:51;3.37;;;1.40;;
5559;SDS011;2803;47.916;8.074;2024-02-15T03:12:18;3.80;;;1.40;;
5559;SDS011;2803;47.916;8.074;2024-02-15T03:14:44;1.40;;;1.10;;
5559;SDS011;2803;47.916;8.074;2024-02-15T03:17:13;4.93;;;1.60;;
5559;SDS011;2803;47.916;8.074;2024-02-15T03:19:40;2.53;;;1.00;;
5559;SDS011;2803;47.916;8.074;2024-02-15T03:22:07;3.40;;;1.50;;
5559;SDS011;2803;47.916;8.074;2024-02-15T03:24:34;5.73;;;1.27;;
5559;SDS011;2803;47.916;8.074;2024-02-15T03:27:01;2.30;;;1.40;;
5559;SDS011;2803;47.916;8.074;2024-02-15T03:29:27;2.33;;;1.10;;
5559;SDS011;2803;47.916;8.074;2024-02-15T03:31:54;2.40;;;1.20;;
5559;SDS011;2803;47.916;8.074;2024-02-15T03:34:22;1.83;;;1.10;;
5559;SDS011;2803;47.916;8.074;2024-02-15T03:36:50;3.10;;;1.43;;
5559;SDS011;2803;47.916;8.074;2024-02-15T03:39:19;3.87;;;2.10;;
5559;SDS011;2803;47.916;8.074;2024-02-15T03:41:48;3.17;;;1.37;;
5559;SDS011;2803;47.916;8.074;2024-02-15T03:44:15;1.97;;;1.50;;
5559;SDS011;2803;47.916;8.074;2024-02-15T03:46:43;3.40;;;1.30;;
5559;SDS011;2803;47.916;8.074;2024-02-15T03:49:11;2.27;;;1.50;;
5559;SDS011;2803;47.916;8.074;2024-02-15T03:51:39;3.80;;;1.50;;
5559;SDS011;2803;47.916;8.074;2024-02-15T03:54:08;2.20;;;1.40;;
5559;SDS011;2803;47.916;8.074;2024-02-15T03:56:34;3.67;;;1.60;;
5559;SDS011;2803;47.916;8.074;2024-02-15T03:59:01;3.07;;;1.60;;
5559;SDS011;2803;47.916;8.074;2024-02-15T04:01:29;2.40;;;1.27;;
5559;SDS011;2803;47.916;8.074;2024-02-15T04:03:58;3.53;;;1.50;;
5559;SDS011;2803;47.916;8.074;2024-02-15T04:06:27;7.10;;;1.20;;
5559;SDS011;2803;47.916;8.074;2024-02-15T04:08:57;3.20;;;1.50;;
5559;SDS011;2803;47.916;8.074;2024-02-15T04:11:24;3.73;;;1.63;;
5559;SDS011;2803;47.916;8.074;2024-02-15T04:13:51;5.00;;;1.47;;
5559;SDS011;2803;47.916;8.074;2024-02-15T04:16:17;1.63;;;1.20;;
5559;SDS011;2803;47.916;8.074;2024-02-15T04:18:45;2.33;;;1.47;;
5559;SDS011;2803;47.916;8.074;2024-02-15T04:21:12;1.90;;;1.27;;
5559;SDS011;2803;47.916;8.074;2024-02-15T04:23:41;3.00;;;1.20;;
5559;SDS011;2803;47.916;8.074;2024-02-15T04:26:10;1.93;;;1.30;;
5559;SDS011;2803;47.916;8.074;2024-02-15T04:28:38;1.90;;;1.23;;
5559;SDS011;2803;47.916;8.074;2024-02-15T04:31:07;2.00;;;1.33;;
5559;SDS011;2803;47.916;8.074;2024-02-15T04:33:34;1.97;;;1.50;;
5559;SDS011;2803;47.916;8.074;2024-02-15T04:36:01;1.87;;;1.33;;
5559;SDS011;2803;47.916;8.074;2024-02-15T04:38:31;2.20;;;1.47;;
5559;SDS011;2803;47.916;8.074;2024-02-15T04:40:59;6.60;;;1.80;;
5559;SDS011;2803;47.916;8.074;2024-02-15T04:43:27;4.00;;;1.70;;
5559;SDS011;2803;47.916;8.074;2024-02-15T04:45:54;4.07;;;1.43;;
5559;SDS011;2803;47.916;8.074;2024-02-15T04:48:20;3.27;;;2.10;;
5559;SDS011;2803;47.916;8.074;2024-02-15T04:50:49;3.67;;;2.03;;
5559;SDS011;2803;47.916;8.074;2024-02-15T04:53:17;1.87;;;1.50;;
5559;SDS011;2803;47.916;8.074;2024-02-15T04:55:47;3.83;;;1.70;;
5559;SDS011;2803;47.916;8.074;2024-02-15T04:58:13;2.40;;;1.87;;
5559;SDS011;2803;47.916;8.074;2024-02-15T05:00:41;1.77;;;1.67;;
5559;SDS011;2803;47.916;8.074;2024-02-15T05:03:08;2.03;;;1.40;;
5559;SDS011;2803;47.916;8.074;2024-02-15T05:05:35;2.10;;;1.90;;
5559;SDS011;2803;47.916;8.074;2024-02-15T05:08:04;3.73;;;2.40;;
5559;SDS011;2803;47.916;8.074;2024-02-15T05:10:31;3.17;;;2.00;;
5559;SDS011;2803;47.916;8.074;2024-02-15T05:12:57;6.10;;;2.20;;
5559;SDS011;2803;47.916;8.074;2024-02-15T05:15:26;3.87;;;2.17;;
5559;SDS011;2803;47.916;8.074;2024-02-15T05:17:54;2.80;;;2.17;;
5559;SDS011;2803;47.916;8.074;2024-02-15T05:20:20;2.70;;;1.70;;
5559;SDS011;2803;47.916;8.074;2024-02-15T05:22:47;3.30;;;1.57;;
5559;SDS011;2803;47.916;8.074;2024-02-15T05:25:14;1.77;;;1.50;;
5559;SDS011;2803;47.916;8.074;2024-02-15T05:27:41;3.27;;;2.20;;
5559;SDS011;2803;47.916;8.074;2024-02-15T05:30:09;3.13;;;2.23;;
5559;SDS011;2803;47.916;8.074;2024-02-15T05:32:37;1.90;;;1.40;;
5559;SDS011;2803;47.916;8.074;2024-02-15T05:35:11;2.40;;;1.63;;
5559;SDS011;2803;47.916;8.074;2024-02-15T05:37:38;3.83;;;1.80;;
5559;SDS011;2803;47.916;8.074;2024-02-15T05:40:05;1.57;;;1.47;;
5559;SDS011;2803;47.916;8.074;2024-02-15T05:42:32;2.93;;;1.90;;
5559;SDS011;2803;47.916;8.074;2024-02-15T05:45:14;5.73;;;2.33;;
5559;SDS011;2803;47.916;8.074;2024-02-15T05:47:57;2.40;;;1.63;;
5559;SDS011;2803;47.916;8.074;2024-02-15T05:50:26;3.00;;;2.00;;
5559;SDS011;2803;47.916;8.074;2024-02-15T05:52:54;2.27;;;1.70;;
5559;SDS011;2803;47.916;8.074;2024-02-15T05:55:24;2.03;;;1.80;;
5559;SDS011;2803;47.916;8.074;2024-02-15T05:57:54;2.50;;;1.90;;
5559;SDS011;2803;47.916;8.074;2024-02-15T06:00:21;3.17;;;1.70;;
5559;SDS011;2803;47.916;8.074;2024-02-15T06:02:47;2.50;;;1.90;;
5559;SDS011;2803;47.916;8.074;2024-02-15T06:05:14;3.13;;;2.13;;
5559;SDS011;2803;47.916;8.074;2024-02-15T06:07:43;2.13;;;1.87;;
5559;SDS011;2803;47.916;8.074;2024-02-15T06:10:11;3.50;;;1.70;;
5559;SDS011;2803;47.916;8.074;2024-02-15T06:12:38;2.33;;;1.80;;
5559;SDS011;2803;47.916;8.074;2024-02-15T06:15:05;3.23;;;2.00;;
5559;SDS011;2803;47.916;8.074;2024-02-15T06:17:39;5.83;;;2.57;;
5559;SDS011;2803;47.916;8.074;2024-02-15T06:20:06;2.70;;;1.70;;
5559;SDS011;2803;47.916;8.074;2024-02-15T06:22:34;3.27;;;1.80;;
5559;SDS011;2803;47.916;8.074;2024-02-15T06:25:02;10.63;;;1.60;;
5559;SDS011;2803;47.916;8.074;2024-02-15T06:27:30;2.70;;;2.00;;
5559;SDS011;2803;47.916;8.074;2024-02-15T06:29:57;3.20;;;2.07;;
5559;SDS011;2803;47.916;8.074;2024-02-15T06:32:38;4.50;;;2.30;;
5559;SDS011;2803;47.916;8.074;2024-02-15T06:35:18;3.10;;;2.03;;
5559;SDS011;2803;47.916;8.074;2024-02-15T06:37:59;1.97;;;1.80;;
5559;SDS011;2803;47.916;8.074;2024-02-15T06:40:40;2.87;;;1.90;;
5559;SDS011;2803;47.916;8.074;2024-02-15T06:43:07;2.40;;;1.87;;
5559;SDS011;2803;47.916;8.074;2024-02-15T06:45:35;2.00;;;1.80;;
5559;SDS011;2803;47.916;8.074;2024-02-15T06:48:03;3.63;;;1.87;;
5559;SDS011;2803;47.916;8.074;2024-02-15T06:50:32;3.70;;;1.90;;
5559;SDS011;2803;47.916;8.074;2024-02-15T06:52:58;2.43;;;2.07;;
5559;SDS011;2803;47.916;8.074;2024-02-15T06:55:25;3.10;;;2.40;;
5559;SDS011;2803;47.916;8.074;2024-02-15T06:57:53;3.10;;;2.10;;
5559;SDS011;2803;47.916;8.074;2024-02-15T07:00:20;2.80;;;2.00;;
5559;SDS011;2803;47.916;8.074;2024-02-15T07:02:47;3.23;;;2.20;;
5559;SDS011;2803;47.916;8.074;2024-02-15T07:05:13;2.30;;;2.10;;
5559;SDS011;2803;47.916;8.074;2024-02-15T07:07:42;2.60;;;1.83;;
5559;SDS011;2803;47.916;8.074;2024-02-15T07:10:09;2.63;;;1.80;;
5559;SDS011;2803;47.916;8.074;2024-02-15T07:12:35;1.93;;;1.60;;
5559;SDS011;2803;47.916;8.074;2024-02-15T07:15:04;1.83;;;1.73;;
5559;SDS011;2803;47.916;8.074;2024-02-15T07:17:34;1.80;;;1.70;;
5559;SDS011;2803;47.916;8.074;2024-02-15T07:20:02;4.13;;;2.10;;
5559;SDS011;2803;47.916;8.074;2024-02-15T07:22:29;2.37;;;1.60;;
5559;SDS011;2803;47.916;8.074;2024-02-15T07:24:57;1.40;;;1.20;;
5559;SDS011;2803;47.916;8.074;2024-02-15T07:27:23;2.33;;;1.50;;
5559;SDS011;2803;47.916;8.074;2024-02-15T07:29:51;2.10;;;1.33;;
5559;SDS011;2803;47.916;8.074;2024-02-15T07:32:20;4.60;;;2.00;;
5559;SDS011;2803;47.916;8.074;2024-02-15T07:34:47;1.90;;;1.60;;
5559;SDS011;2803;47.916;8.074;2024-02-15T07:37:14;2.40;;;1.70;;
5559;SDS011;2803;47.916;8.074;2024-02-15T07:39:43;3.87;;;1.60;;
5559;SDS011;2803;47.916;8.074;2024-02-15T07:42:10;3.40;;;2.07;;
5559;SDS011;2803;47.916;8.074;2024-02-15T07:44:37;2.37;;;1.63;;
5559;SDS011;2803;47.916;8.074;2024-02-15T07:47:04;2.73;;;1.60;;
5559;SDS011;2803;47.916;8.074;2024-02-15T07:49:32;3.40;;;1.97;;
5559;SDS011;2803;47.916;8.074;2024-02-15T07:51:59;2.40;;;1.40;;
5559;SDS011;2803;47.916;8.074;2024-02-15T07:54:26;3.53;;;1.37;;
5559;SDS011;2803;47.916;8.074;2024-02-15T07:56:54;2.57;;;1.50;;
5559;SDS011;2803;47.916;8.074;2024-02-15T07:59:21;2.30;;;1.37;;
5559;SDS011;2803;47.916;8.074;2024-02-15T08:01:49;3.10;;;1.40;;
5559;SDS011;2803;47.916;8.074;2024-02-15T08:04:16;2.53;;;1.30;;
5559;SDS011;2803;47.916;8.074;2024-02-15T08:06:44;1.80;;;1.10;;
5559;SDS011;2803;47.916;8.074;2024-02-15T08:09:11;2.37;;;1.43;;
5559;SDS011;2803;47.916;8.074;2024-02-15T08:11:39;1.30;;;1.07;;
5559;SDS011;2803;47.916;8.074;2024-02-15T08:14:05;2.53;;;1.50;;
5559;SDS011;2803;47.916;8.074;2024-02-15T08:16:35;1.90;;;1.20;;
5559;SDS011;2803;47.916;8.074;2024-02-15T08:19:02;2.43;;;1.53;;
5559;SDS011;2803;47.916;8.074;2024-02-15T08:21:30;2.13;;;1.30;;
5559;SDS011;2803;47.916;8.074;2024-02-15T08:24:01;2.63;;;1.20;;
5559;SDS011;2803;47.916;8.074;2024-02-15T08:26:30;2.60;;;1.10;;
5559;SDS011;2803;47.916;8.074;2024-02-15T08:28:57;2.37;;;1.00;;
5559;SDS011;2803;47.916;8.074;2024-02-15T08:31:24;1.77;;;1.37;;
5559;SDS011;2803;47.916;8.074;2024-02-15T08:33:51;2.60;;;1.60;;
5559;SDS011;2803;47.916;8.074;2024-02-15T08:36:18;1.87;;;1.20;;
5559;SDS011;2803;47.916;8.074;2024-02-15T08:38:46;3.73;;;1.40;;
5559;SDS011;2803;47.916;8.074;2024-02-15T08:41:14;4.27;;;1.37;;
5559;SDS011;2803;47.916;8.074;2024-02-15T08:43:43;4.50;;;1.27;;
5559;SDS011;2803;47.916;8.074;2024-02-15T08:46:10;3.70;;;1.10;;
5559;SDS011;2803;47.916;8.074;2024-02-15T08:48:37;2.30;;;1.50;;
5559;SDS011;2803;47.916;8.074;2024-02-15T08:51:04;2.03;;;1.47;;
5559;SDS011;2803;47.916;8.074;2024-02-15T08:53:33;2.73;;;1.40;;
5559;SDS011;2803;47.916;8.074;2024-02-15T08:56:01;1.20;;;1.10;;
5559;SDS011;2803;47.916;8.074;2024-02-15T08:58:29;2.13;;;1.47;;
5559;SDS011;2803;47.916;8.074;2024-02-15T09:00:56;1.60;;;1.50;;
5559;SDS011;2803;47.916;8.074;2024-02-15T09:03:23;1.60;;;1.40;;
5559;SDS011;2803;47.916;8.074;2024-02-15T09:05:50;2.27;;;1.33;;
5559;SDS011;2803;47.916;8.074;2024-02-15T09:08:16;4.70;;;1.50;;
5559;SDS011;2803;47.916;8.074;2024-02-15T09:10:45;2.30;;;1.40;;
5559;SDS011;2803;47.916;8.074;2024-02-15T09:13:12;5.00;;;1.53;;
5559;SDS011;2803;47.916;8.074;2024-02-15T09:15:41;3.87;;;1.33;;
5559;SDS011;2803;47.916;8.074;2024-02-15T09:18:07;4.03;;;1.30;;
5559;SDS011;2803;47.916;8.074;2024-02-15T09:20:34;2.20;;;1.53;;
5559;SDS011;2803;47.916;8.074;2024-02-15T09:23:03;2.60;;;1.33;;
5559;SDS011;2803;47.916;8.074;2024-02-15T09:25:34;2.97;;;1.50;;
5559;SDS011;2803;47.916;8.074;2024-02-15T09:28:03;1.93;;;1.37;;
5559;SDS011;2803;47.916;8.074;2024-02-15T09:30:30;3.80;;;1.27;;
5559;SDS011;2803;47.916;8.074;2024-02-15T09:32:59;1.40;;;1.30;;
5559;SDS011;2803;47.916;8.074;2024-02-15T09:35:28;2.40;;;1.50;;
5559;SDS011;2803;47.916;8.074;2024-02-15T09:37:55;2.57;;;1.40;;
5559;SDS011;2803;47.916;8.074;2024-02-15T09:40:21;5.40;;;1.93;;
5559;SDS011;2803;47.916;8.074;2024-02-15T09:42:51;8.90;;;1.57;;
5559;SDS011;2803;47.916;8.074;2024-02-15T09:45:18;2.83;;;1.07;;
5559;SDS011;2803;47.916;8.074;2024-02-15T09:47:45;3.20;;;1.40;;
5559;SDS011;2803;47.916;8.074;2024-02-15T09:50:16;2.73;;;1.30;;
5559;SDS011;2803;47.916;8.074;2024-02-15T09:52:44;7.20;;;1.10;;
5559;SDS011;2803;47.916;8.074;2024-02-15T09:55:11;4.20;;;1.30;;
5559;SDS011;2803;47.916;8.074;2024-02-15T09:57:38;2.10;;;1.17;;
5559;SDS011;2803;47.916;8.074;2024-02-15T10:00:05;3.33;;;1.13;;
5559;SDS011;2803;47.916;8.074;2024-02-15T10:02:33;3.93;;;1.30;;
5559;SDS011;2803;47.916;8.074;2024-02-15T10:05:00;2.30;;;1.20;;
5559;SDS011;2803;47.916;8.074;2024-02-15T10:07:29;2.73;;;1.10;;
5559;SDS011;2803;47.916;8.074;2024-02-15T10:09:55;4.27;;;1.40;;
5559;SDS011;2803;47.916;8.074;2024-02-15T10:12:22;1.30;;;1.10;;
5559;SDS011;2803;47.916;8.074;2024-02-15T10:15:03;3.03;;;1.33;;
5559;SDS011;2803;47.916;8.074;2024-02-15T10:17:32;11.60;;;1.60;;
5559;SDS011;2803;47.916;8.074;2024-02-15T10:20:03;2.13;;;1.47;;
5559;SDS011;2803;47.916;8.074;2024-02-15T10:22:32;10.23;;;1.67;;
5559;SDS011;2803;47.916;8.074;2024-02-15T10:27:40;3.20;;;1.40;;
5559;SDS011;2803;47.916;8.074;2024-02-15T10:30:13;2.10;;;1.07;;
5559;SDS011;2803;47.916;8.074;2024-02-15T10:32:42;5.40;;;1.80;;
5559;SDS011;2803;47.916;8.074;2024-02-15T10:35:09;2.20;;;1.10;;
5559;SDS011;2803;47.916;8.074;2024-02-15T10:37:41;4.27;;;1.50;;
5559;SDS011;2803;47.916;8.074;2024-02-15T10:40:08;2.30;;;1.50;;
5559;SDS011;2803;47.916;8.074;2024-02-15T10:42:38;3.30;;;1.77;;
5559;SDS011;2803;47.916;8.074;2024-02-15T10:45:07;1.90;;;1.47;;
5559;SDS011;2803;47.916;8.074;2024-02-15T10:47:35;2.20;;;1.20;;
5559;SDS011;2803;47.916;8.074;2024-02-15T10:50:03;3.20;;;1.40;;
5559;SDS011;2803;47.916;8.074;2024-02-15T10:52:31;3.23;;;1.43;;
5559;SDS011;2803;47.916;8.074;2024-02-15T10:55:00;3.23;;;1.40;;
5559;SDS011;2803;47.916;8.074;2024-02-15T10:57:31;3.27;;;1.30;;
5559;SDS011;2803;47.916;8.074;2024-02-15T10:59:59;4.27;;;1.13;;
5559;SDS011;2803;47.916;8.074;2024-02-15T11:02:36;3.97;;;1.70;;
5559;SDS011;2803;47.916;8.074;2024-02-15T11:05:06;2.70;;;1.20;;
5559;SDS011;2803;47.916;8.074;2024-02-15T11:07:35;1.40;;;1.10;;
5559;SDS011;2803;47.916;8.074;2024-02-15T11:10:03;1.87;;;0.97;;
5559;SDS011;2803;47.916;8.074;2024-02-15T11:12:35;3.10;;;1.20;;
5559;SDS011;2803;47.916;8.074;2024-02-15T11:15:03;1.80;;;0.90;;
5559;SDS011;2803;47.916;8.074;2024-02-15T11:23:12;4.43;;;1.23;;
5559;SDS011;2803;47.916;8.074;2024-02-15T11:25:51;2.23;;;1.20;;
5559;SDS011;2803;47.916;8.074;2024-02-15T11:37:09;5.53;;;1.37;;
5559;SDS011;2803;47.916;8.074;2024-02-15T11:39:43;2.57;;;0.93;;
5559;SDS011;2803;47.916;8.074;2024-02-15T11:45:02;2.50;;;1.23;;
5559;SDS011;2803;47.916;8.074;2024-02-15T11:47:31;6.30;;;1.40;;
5559;SDS011;2803;47.916;8.074;2024-02-15T11:49:59;2.13;;;1.13;;
5559;SDS011;2803;47.916;8.074;2024-02-15T11:52:27;2.57;;;1.20;;
5559;SDS011;2803;47.916;8.074;2024-02-15T11:55:03;4.50;;;1.40;;
5559;SDS011;2803;47.916;8.074;2024-02-15T11:57:35;4.67;;;1.43;;
5559;SDS011;2803;47.916;8.074;2024-02-15T12:00:18;3.23;;;1.00;;
5559;SDS011;2803;47.916;8.074;2024-02-15T12:03:00;4.00;;;1.37;;
5559;SDS011;2803;47.916;8.074;2024-02-15T12:05:41;4.67;;;0.97;;
5559;SDS011;2803;47.916;8.074;2024-02-15T12:08:21;2.40;;;1.07;;
5559;SDS011;2803;47.916;8.074;2024-02-15T12:11:02;1.23;;;0.87;;
5559;SDS011;2803;47.916;8.074;2024-02-15T12:13:44;1.67;;;0.90;;
5559;SDS011;2803;47.916;8.074;2024-02-15T12:16:30;2.73;;;1.57;;
5559;SDS011;2803;47.916;8.074;2024-02-15T12:19:10;2.57;;;1.10;;
5559;SDS011;2803;47.916;8.074;2024-02-15T12:21:37;2.07;;;1.00;;
5559;SDS011;2803;47.916;8.074;2024-02-15T12:24:07;2.07;;;1.10;;
5559;SDS011;2803;47.916;8.074;2024-02-15T12:26:34;2.00;;;1.00;;
5559;SDS011;2803;47.916;8.074;2024-02-15T12:29:02;1.57;;;0.80;;
5559;SDS011;2803;47.916;8.074;2024-02-15T12:31:31;1.90;;;0.97;;
5559;SDS011;2803;47.916;8.074;2024-02-15T12:34:03;3.87;;;0.90;;
5559;SDS011;2803;47.916;8.074;2024-02-15T12:36:31;1.40;;;0.90;;
5559;SDS011;2803;47.916;8.074;2024-02-15T12:38:59;9.17;;;1.10;;
5559;SDS011;2803;47.916;8.074;2024-02-15T12:41:26;5.87;;;0.90;;
5559;SDS011;2803;47.916;8.074;2024-02-15T12:43:52;3.83;;;1.20;;
5559;SDS011;2803;47.916;8.074;2024-02-15T12:46:21;1.97;;;0.80;;
5559;SDS011;2803;47.916;8.074;2024-02-15T12:48:47;3.10;;;1.07;;
5559;SDS011;2803;47.916;8.074;2024-02-15T12:51:15;1.20;;;0.80;;
5559;SDS011;2803;47.916;8.074;2024-02-15T12:53:42;2.20;;;0.90;;
5559;SDS011;2803;47.916;8.074;2024-02-15T12:56:09;5.50;;;1.63;;
5559;SDS011;2803;47.916;8.074;2024-02-15T12:58:37;4.60;;;1.10;;
5559;SDS011;2803;47.916;8.074;2024-02-15T13:01:04;1.37;;;1.10;;
5559;SDS011;2803;47.916;8.074;2024-02-15T13:03:32;5.80;;;1.00;;
5559;SDS011;2803;47.916;8.074;2024-02-15T13:05:58;3.17;;;1.20;;
5559;SDS011;2803;47.916;8.074;2024-02-15T13:08:25;2.70;;;1.13;;
5559;SDS011;2803;47.916;8.074;2024-02-15T13:10:51;7.23;;;1.50;;
5559;SDS011;2803;47.916;8.074;2024-02-15T13:13:18;2.60;;;1.10;;
5559;SDS011;2803;47.916;8.074;2024-02-15T13:15:46;7.37;;;1.20;;
5559;SDS011;2803;47.916;8.074;2024-02-15T13:18:12;2.40;;;1.27;;
5559;SDS011;2803;47.916;8.074;2024-02-15T13:20:41;6.20;;;1.20;;
5559;SDS011;2803;47.916;8.074;2024-02-15T13:23:09;4.50;;;1.40;;
5559;SDS011;2803;47.916;8.074;2024-02-15T13:25:44;1.63;;;1.07;;
5559;SDS011;2803;47.916;8.074;2024-02-15T13:28:11;2.20;;;1.20;;
5559;SDS011;2803;47.916;8.074;2024-02-15T13:30:38;2.33;;;1.17;;
5559;SDS011;2803;47.916;8.074;2024-02-15T13:33:06;2.60;;;1.10;;
5559;SDS011;2803;47.916;8.074;2024-02-15T13:35:32;3.87;;;1.40;;
5559;SDS011;2803;47.916;8.074;2024-02-15T13:38:00;2.57;;;1.33;;
5559;SDS011;2803;47.916;8.074;2024-02-15T13:40:28;2.07;;;1.47;;
5559;SDS011;2803;47.916;8.074;2024-02-15T13:42:57;1.30;;;1.03;;
5559;SDS011;2803;47.916;8.074;2024-02-15T13:45:24;4.40;;;1.50;;
5559;SDS011;2803;47.916;8.074;2024-02-15T13:47:57;4.50;;;1.20;;
5559;SDS011;2803;47.916;8.074;2024-02-15T13:50:24;6.50;;;1.23;;
5559;SDS011;2803;47.916;8.074;2024-02-15T13:52:51;3.53;;;1.00;;
5559;SDS011;2803;47.916;8.074;2024-02-15T13:55:19;1.80;;;1.00;;
5559;SDS011;2803;47.916;8.074;2024-02-15T13:57:46;2.40;;;1.07;;
5559;SDS011;2803;47.916;8.074;2024-02-15T14:00:15;2.70;;;1.43;;
5559;SDS011;2803;47.916;8.074;2024-02-15T14:02:47;4.90;;;1.20;;
5559;SDS011;2803;47.916;8.074;2024-02-15T14:05:14;5.10;;;1.40;;
5559;SDS011;2803;47.916;8.074;2024-02-15T14:07:44;2.17;;;1.20;;
5559;SDS011;2803;47.916;8.074;2024-02-15T14:10:12;2.47;;;1.57;;
5559;SDS011;2803;47.916;8.074;2024-02-15T14:12:40;3.10;;;1.30;;
5559;SDS011;2803;47.916;8.074;2024-02-15T14:15:07;3.23;;;1.80;;
5559;SDS011;2803;47.916;8.074;2024-02-15T14:17:35;3.83;;;1.30;;
5559;SDS011;2803;47.916;8.074;2024-02-15T14:20:01;4.97;;;1.43;;
5559;SDS011;2803;47.916;8.074;2024-02-15T14:22:33;4.50;;;1.20;;
5559;SDS011;2803;47.916;8.074;2024-02-15T14:25:00;3.00;;;1.50;;
5559;SDS011;2803;47.916;8.074;2024-02-15T14:27:26;3.33;;;1.40;;
5559;SDS011;2803;47.916;8.074;2024-02-15T14:29:54;2.57;;;1.50;;
5559;SDS011;2803;47.916;8.074;2024-02-15T14:32:35;4.23;;;1.40;;
5559;SDS011;2803;47.916;8.074;2024-02-15T14:35:15;3.67;;;1.53;;
5559;SDS011;2803;47.916;8.074;2024-02-15T14:37:42;3.93;;;1.03;;
5559;SDS011;2803;47.916;8.074;2024-02-15T14:40:10;2.03;;;1.17;;
5559;SDS011;2803;47.916;8.074;2024-02-15T14:42:40;2.67;;;1.20;;
5559;SDS011;2803;47.916;8.074;2024-02-15T14:45:09;2.23;;;0.93;;
5559;SDS011;2803;47.916;8.074;2024-02-15T14:47:37;4.87;;;1.10;;
5559;SDS011;2803;47.916;8.074;2024-02-15T14:50:04;2.60;;;1.23;;
5559;SDS011;2803;47.916;8.074;2024-02-15T14:52:33;1.77;;;1.30;;
5559;SDS011;2803;47.916;8.074;2024-02-15T14:55:00;6.37;;;1.30;;
5559;SDS011;2803;47.916;8.074;2024-02-15T14:57:29;1.67;;;1.03;;
5559;SDS011;2803;47.916;8.074;2024-02-15T14:59:56;2.17;;;1.20;;
5559;SDS011;2803;47.916;8.074;2024-02-15T15:02:25;2.83;;;1.20;;
5559;SDS011;2803;47.916;8.074;2024-02-15T15:04:52;2.80;;;1.40;;
5559;SDS011;2803;47.916;8.074;2024-02-15T15:07:44;7.70;;;1.30;;
5559;SDS011;2803;47.916;8.074;2024-02-15T15:10:25;6.90;;;1.50;;
5559;SDS011;2803;47.916;8.074;2024-02-15T15:13:05;2.43;;;1.30;;
5559;SDS011;2803;47.916;8.074;2024-02-15T15:15:32;3.77;;;1.40;;
5559;SDS011;2803;47.916;8.074;2024-02-15T15:18:00;4.40;;;1.53;;
5559;SDS011;2803;47.916;8.074;2024-02-15T15:20:29;4.80;;;1.87;;
5559;SDS011;2803;47.916;8.074;2024-02-15T15:22:58;3.50;;;1.50;;
5559;SDS011;2803;47.916;8.074;2024-02-15T15:25:25;4.43;;;1.60;;
5559;SDS011;2803;47.916;8.074;2024-02-15T15:27:53;3.40;;;1.50;;
5559;SDS011;2803;47.916;8.074;2024-02-15T15:30:20;2.90;;;1.60;;
5559;SDS011;2803;47.916;8.074;2024-02-15T15:32:47;4.03;;;1.60;;
5559;SDS011;2803;47.916;8.074;2024-02-15T15:35:16;2.17;;;1.30;;
5559;SDS011;2803;47.916;8.074;2024-02-15T15:37:43;3.40;;;1.47;;
5559;SDS011;2803;47.916;8.074;2024-02-15T15:40:11;3.80;;;1.87;;
5559;SDS011;2803;47.916;8.074;2024-02-15T15:42:38;6.20;;;1.50;;